Time;durP1;ratioP1;P1;durP2;ratioP2;P2;SDS_P1;SDS_P2;PMS_P1;PMS_P2;Temp;Humidity;BMP_temperature;BMP_pressure;BME280_temperature;BME280_humidity;BME280_pressure;Samples;Min_cycle;Max_cycle;Signal;HPM_P1;HPM_P2
2022/10/06 00:00:07;;;;;;;8.85;1.30;;;;;;;13.13;90.61;101795.63;5073325;28;20052;-54
2022/10/06 00:02:35;;;;;;;9.50;1.40;;;;;;;13.11;90.95;101786.94;5083608;28;20485;-54
2022/10/06 00:05:02;;;;;;;6.18;1.50;;;;;;;13.25;92.23;101793.63;5092901;28;20048;-55
2022/10/06 00:07:29;;;;;;;10.45;1.50;;;;;;;13.30;90.98;101796.69;5088627;28;20040;-54
2022/10/06 00:09:55;;;;;;;11.75;1.40;;;;;;;13.38;91.82;101796.00;5073170;28;20044;-54
2022/10/06 00:12:22;;;;;;;10.80;1.67;;;;;;;13.29;91.89;101791.50;5076471;28;20032;-55
2022/10/06 00:14:49;;;;;;;4.50;1.25;;;;;;;13.34;90.62;101797.28;5086365;28;20489;-54
2022/10/06 00:17:15;;;;;;;9.55;1.33;;;;;;;13.49;90.46;101794.97;5093195;28;20044;-55
2022/10/06 00:19:42;;;;;;;10.45;1.50;;;;;;;13.38;92.12;101804.81;5092995;28;20044;-52
2022/10/06 00:22:09;;;;;;;7.35;1.25;;;;;;;13.46;90.15;101803.25;5091455;28;20055;-52
2022/10/06 00:24:35;;;;;;;4.38;1.20;;;;;;;13.33;90.01;101815.06;5087920;28;20048;-52
2022/10/06 00:27:02;;;;;;;7.57;1.60;;;;;;;13.38;90.52;101814.66;5092058;28;20048;-53
2022/10/06 00:29:29;;;;;;;8.70;1.50;;;;;;;13.40;91.67;101824.16;5055947;28;20498;-53
2022/10/06 00:31:56;;;;;;;6.75;1.40;;;;;;;13.49;90.56;101821.63;5072811;28;20044;-53
2022/10/06 00:34:23;;;;;;;9.23;1.60;;;;;;;13.38;91.51;101828.81;5074358;28;20044;-53
2022/10/06 00:36:50;;;;;;;4.68;1.27;;;;;;;13.38;92.41;101838.63;5073144;28;20049;-53
2022/10/06 00:39:16;;;;;;;6.80;1.27;;;;;;;13.37;91.14;101832.47;5087679;28;20056;-54
2022/10/06 00:41:43;;;;;;;8.30;1.50;;;;;;;13.33;91.27;101831.06;5092828;28;20075;-50
2022/10/06 00:44:09;;;;;;;5.65;1.60;;;;;;;13.28;91.62;101835.13;5092952;28;20044;-53
2022/10/06 00:46:53;;;;;;;7.70;1.50;;;;;;;13.29;93.62;101844.81;5092998;28;20048;-54
2022/10/06 00:49:29;;;;;;;5.82;1.65;;;;;;;13.17;94.15;101839.66;5091773;28;20138;-54
2022/10/06 00:52:00;;;;;;;10.35;1.80;;;;;;;13.22;93.67;101853.38;5055078;28;20040;-54
2022/10/06 00:54:27;;;;;;;8.98;1.65;;;;;;;13.15;94.09;101856.75;5091016;28;20048;-54
2022/10/06 00:56:54;;;;;;;7.30;1.60;;;;;;;13.23;93.58;101867.53;5093038;28;20052;-53
2022/10/06 00:59:21;;;;;;;11.50;1.83;;;;;;;13.12;94.32;101863.22;5090721;28;20406;-54
2022/10/06 01:02:14;;;;;;;9.10;2.00;;;;;;;13.29;94.04;101863.47;5091727;28;20093;-54
2022/10/06 01:04:45;;;;;;;6.75;1.75;;;;;;;13.18;94.53;101867.97;5091389;28;20036;-54
2022/10/06 01:07:12;;;;;;;5.05;1.40;;;;;;;13.16;94.27;101866.44;5093407;28;20531;-54
2022/10/06 01:09:39;;;;;;;6.50;1.58;;;;;;;13.09;95.03;101871.50;5076239;28;20102;-52
2022/10/06 01:12:07;;;;;;;8.85;1.80;;;;;;;13.14;95.11;101881.72;5076406;28;20131;-54
2022/10/06 01:14:36;;;;;;;8.48;1.85;;;;;;;13.00;95.94;101875.84;5093711;28;20098;-52
2022/10/06 01:17:13;;;;;;;9.85;1.98;;;;;;;12.91;96.10;101886.50;5096662;28;20070;-54
2022/10/06 01:19:56;;;;;;;5.78;1.67;;;;;;;12.97;96.74;101896.59;5094951;28;20067;-54
2022/10/06 01:22:29;;;;;;;14.48;2.35;;;;;;;13.10;96.08;101897.16;5091962;28;20041;-54
2022/10/06 01:24:56;;;;;;;12.45;2.40;;;;;;;13.18;96.26;101896.44;5091649;28;20064;-53
2022/10/06 01:27:25;;;;;;;10.60;2.08;;;;;;;13.15;95.68;101902.03;5077123;28;20123;-52
2022/10/06 01:29:54;;;;;;;6.30;2.00;;;;;;;13.02;95.53;101902.34;5095825;28;20048;-54
2022/10/06 01:32:23;;;;;;;13.90;2.20;;;;;;;12.98;97.15;101898.28;5075967;28;20379;-53
2022/10/06 01:34:52;;;;;;;7.78;2.00;;;;;;;12.85;96.73;101902.06;5096055;28;20044;-53
2022/10/06 01:37:20;;;;;;;7.78;2.00;;;;;;;12.64;98.67;101904.88;5096116;28;20048;-54
2022/10/06 01:39:47;;;;;;;9.05;1.90;;;;;;;12.65;99.12;101917.19;5077451;28;20044;-53
2022/10/06 01:42:13;;;;;;;11.82;2.15;;;;;;;12.93;100.00;101913.84;5075241;28;20067;-55
2022/10/06 01:44:40;;;;;;;15.30;3.88;;;;;;;13.00;96.15;101925.63;5087284;28;20040;-53
2022/10/06 01:47:07;;;;;;;15.65;4.20;;;;;;;12.99;97.44;101914.13;5096147;28;20075;-53
2022/10/06 01:49:34;;;;;;;13.52;3.67;;;;;;;13.07;96.51;101914.25;5083181;28;20076;-52
2022/10/06 01:52:01;;;;;;;18.23;3.80;;;;;;;13.15;96.02;101920.69;5036828;28;20052;-52
2022/10/06 01:54:28;;;;;;;17.60;3.28;;;;;;;13.35;94.98;101918.88;5084945;28;20040;-53
2022/10/06 01:56:55;;;;;;;14.13;3.50;;;;;;;13.23;95.84;101927.00;5096045;28;20059;-52
2022/10/06 01:59:23;;;;;;;10.75;3.22;;;;;;;13.29;95.64;101922.91;5085186;28;20052;-54
2022/10/06 02:01:50;;;;;;;18.33;2.67;;;;;;;13.21;96.09;101930.81;5073916;28;20041;-54
2022/10/06 02:04:19;;;;;;;15.45;2.50;;;;;;;13.07;96.64;101930.22;5077399;28;20048;-52
2022/10/06 02:06:46;;;;;;;15.00;2.40;;;;;;;13.07;96.74;101938.22;5074971;28;20109;-53
2022/10/06 02:09:13;;;;;;;12.50;2.33;;;;;;;13.14;96.89;101935.84;5081333;28;20075;-53
2022/10/06 02:11:41;;;;;;;10.02;2.63;;;;;;;13.24;96.65;101941.16;5095478;28;20043;-53
2022/10/06 02:14:07;;;;;;;8.20;2.22;;;;;;;13.21;96.16;101944.94;5088808;28;20589;-54
2022/10/06 02:16:34;;;;;;;14.68;2.38;;;;;;;13.25;96.26;101945.50;5075377;28;20048;-54
2022/10/06 02:19:01;;;;;;;10.77;2.28;;;;;;;13.18;96.75;101950.56;5074738;28;20063;-55
2022/10/06 02:21:28;;;;;;;12.65;2.67;;;;;;;13.22;96.51;101951.13;5074685;28;20074;-53
2022/10/06 02:23:55;;;;;;;10.73;2.20;;;;;;;13.29;96.63;101964.72;5077200;28;20040;-54
2022/10/06 02:26:22;;;;;;;13.02;2.47;;;;;;;13.24;96.58;101963.34;5095470;28;20051;-51
2022/10/06 02:28:50;;;;;;;12.68;2.47;;;;;;;13.24;95.80;101960.66;5093786;28;20532;-53
2022/10/06 02:31:20;;;;;;;10.68;2.50;;;;;;;13.28;95.89;101963.88;5094075;28;20489;-53
2022/10/06 02:33:48;;;;;;;8.85;2.47;;;;;;;13.08;95.94;101968.38;5090578;28;20121;-54
2022/10/06 02:36:17;;;;;;;17.75;2.95;;;;;;;13.15;95.60;101972.19;5074845;28;20045;-53
2022/10/06 02:38:44;;;;;;;15.15;2.95;;;;;;;13.06;95.57;101970.31;5075275;28;20051;-53
2022/10/06 02:41:11;;;;;;;20.60;2.38;;;;;;;13.14;93.63;101974.97;5077892;28;20040;-53
2022/10/06 02:43:38;;;;;;;14.80;2.50;;;;;;;13.14;92.66;101986.47;5076698;28;20081;-54
2022/10/06 02:46:10;;;;;;;13.82;2.47;;;;;;;13.11;92.59;101980.56;5094733;28;20401;-53
2022/10/06 02:48:39;;;;;;;16.30;2.70;;;;;;;13.12;92.04;101992.94;5093161;28;20086;-54
2022/10/06 02:51:11;;;;;;;13.70;2.33;;;;;;;13.11;91.32;101999.22;5060298;28;20047;-54
2022/10/06 02:53:38;;;;;;;13.17;2.43;;;;;;;13.00;91.05;101993.03;5093712;28;20090;-54
2022/10/06 02:56:11;;;;;;;12.95;2.10;;;;;;;12.95;91.62;101994.44;5074464;28;20040;-51
2022/10/06 02:58:38;;;;;;;16.25;1.98;;;;;;;12.90;92.18;101997.53;5076636;28;20048;-53
2022/10/06 03:01:13;;;;;;;12.65;2.40;;;;;;;12.87;92.18;102003.97;5092621;28;20050;-52
2022/10/06 03:03:40;;;;;;;18.10;2.20;;;;;;;12.90;91.74;102010.84;5089825;28;20380;-53
2022/10/06 03:06:27;;;;;;;14.77;2.28;;;;;;;12.78;91.37;102015.44;5073728;28;20040;-52
2022/10/06 03:09:03;;;;;;;17.02;2.30;;;;;;;12.78;91.46;102012.78;5074089;28;20099;-53
2022/10/06 03:11:34;;;;;;;13.68;2.35;;;;;;;12.83;91.13;102028.38;5073934;28;20044;-52
2022/10/06 03:14:02;;;;;;;19.00;2.42;;;;;;;12.81;91.01;102025.00;5077121;28;20044;-52
2022/10/06 03:16:33;;;;;;;15.20;2.22;;;;;;;12.68;91.51;102025.25;5093801;28;20052;-52
2022/10/06 03:19:02;;;;;;;13.80;2.00;;;;;;;12.60;91.59;102030.41;5094205;28;20054;-52
2022/10/06 03:21:32;;;;;;;18.83;2.15;;;;;;;12.74;90.49;102038.00;5093580;28;20126;-54
2022/10/06 03:23:59;;;;;;;16.40;2.75;;;;;;;12.65;90.24;102044.16;5091977;28;20044;-53
2022/10/06 03:26:31;;;;;;;20.25;2.33;;;;;;;12.60;90.15;102049.03;5083051;28;20080;-54
2022/10/06 03:28:59;;;;;;;19.58;2.00;;;;;;;12.68;89.45;102054.53;5077519;28;20065;-53
2022/10/06 03:31:27;;;;;;;13.55;2.63;;;;;;;12.58;90.12;102057.16;5085925;28;20047;-54
2022/10/06 03:33:55;;;;;;;12.88;1.80;;;;;;;12.58;90.16;102058.97;5091428;28;20077;-54
2022/10/06 03:36:28;;;;;;;20.90;2.92;;;;;;;12.64;89.82;102064.63;5076237;28;20482;-53
2022/10/06 03:38:54;;;;;;;20.52;3.00;;;;;;;12.52;89.62;102067.50;5091871;28;20466;-53
2022/10/06 03:41:25;;;;;;;15.15;2.53;;;;;;;12.51;90.15;102081.78;5074646;28;20455;-54
2022/10/06 03:43:54;;;;;;;16.27;2.20;;;;;;;12.42;90.21;102075.44;5075095;28;20039;-54
2022/10/06 03:46:22;;;;;;;18.10;2.35;;;;;;;12.39;90.70;102081.88;5090895;28;20048;-52
2022/10/06 03:48:50;;;;;;;10.90;2.10;;;;;;;12.40;91.30;102091.53;5093119;28;20040;-53
2022/10/06 03:51:20;;;;;;;17.13;2.30;;;;;;;12.35;89.94;102100.91;5055927;28;20559;-53
2022/10/06 03:53:49;;;;;;;22.80;2.70;;;;;;;12.39;89.43;102102.34;5090422;28;20410;-53
2022/10/06 03:56:19;;;;;;;10.77;2.08;;;;;;;12.41;89.31;102108.38;5093795;28;20047;-53
2022/10/06 03:58:50;;;;;;;14.70;2.10;;;;;;;12.44;88.85;102110.75;5093620;28;20093;-54
2022/10/06 04:01:35;;;;;;;15.95;2.30;;;;;;;12.23;89.81;102110.78;5092086;28;20048;-53
2022/10/06 04:04:05;;;;;;;13.30;2.55;;;;;;;12.42;88.91;102123.34;5090853;28;20032;-53
2022/10/06 04:06:35;;;;;;;20.35;2.47;;;;;;;12.33;88.67;102127.63;5092309;28;20063;-53
2022/10/06 04:09:05;;;;;;;20.35;2.53;;;;;;;12.38;88.24;102129.91;5092725;28;20130;-53
2022/10/06 04:11:36;;;;;;;12.98;2.50;;;;;;;12.21;88.35;102136.69;5093245;28;20044;-53
2022/10/06 04:14:06;;;;;;;19.40;2.27;;;;;;;12.28;88.07;102137.84;5091989;28;20047;-53
2022/10/06 04:16:36;;;;;;;16.15;2.42;;;;;;;12.12;87.84;102145.44;5093195;28;20290;-50
2022/10/06 04:19:06;;;;;;;11.32;2.00;;;;;;;12.09;87.11;102133.25;5093167;28;20055;-52
2022/10/06 04:21:35;;;;;;;20.30;2.92;;;;;;;12.07;87.93;102145.81;5089412;28;20443;-53
2022/10/06 04:24:05;;;;;;;20.63;2.55;;;;;;;11.94;88.00;102159.31;5087371;28;20064;-53
2022/10/06 04:26:36;;;;;;;13.90;2.08;;;;;;;12.09;87.05;102152.69;5086045;28;20040;-52
2022/10/06 04:29:04;;;;;;;16.65;2.40;;;;;;;11.96;87.16;102159.19;5092918;28;20044;-49
2022/10/06 04:31:35;;;;;;;15.07;2.83;;;;;;;11.93;86.97;102159.44;5093062;28;20067;-51
2022/10/06 04:34:05;;;;;;;20.67;2.65;;;;;;;11.84;87.56;102172.50;5090941;28;20508;-52
2022/10/06 04:36:38;;;;;;;16.75;2.75;;;;;;;11.87;87.00;102176.72;5093057;28;20135;-52
2022/10/06 04:39:06;;;;;;;20.42;2.47;;;;;;;11.89;86.75;102178.25;5090363;28;20463;-53
2022/10/06 04:41:36;;;;;;;17.60;2.45;;;;;;;11.81;86.28;102182.56;5092512;28;20504;-52
2022/10/06 04:44:04;;;;;;;20.83;3.42;;;;;;;11.87;85.89;102180.22;5095235;28;20036;-49
2022/10/06 04:46:32;;;;;;;18.25;2.38;;;;;;;11.82;86.28;102185.06;5096775;28;20047;-52
2022/10/06 04:49:16;;;;;;;24.48;2.58;;;;;;;11.82;86.50;102178.91;5094614;28;20044;-52
2022/10/06 04:51:48;;;;;;;19.58;2.85;;;;;;;11.86;85.85;102193.63;5058123;28;20044;-54
2022/10/06 04:54:15;;;;;;;15.30;2.35;;;;;;;11.85;86.45;102191.97;5085228;28;20043;-52
2022/10/06 04:56:42;;;;;;;18.15;2.65;;;;;;;11.81;85.05;102199.34;5076329;28;20136;-51
2022/10/06 04:59:09;;;;;;;22.38;3.00;;;;;;;11.78;85.01;102204.91;5076715;28;20052;-53
2022/10/06 05:01:38;;;;;;;25.98;2.80;;;;;;;11.71;85.47;102209.91;5077011;28;20859;-52
2022/10/06 05:04:09;;;;;;;23.20;2.80;;;;;;;11.73;85.09;102207.09;5096853;28;20051;-50
2022/10/06 05:06:39;;;;;;;18.00;2.90;;;;;;;11.77;85.17;102220.97;5093850;28;20081;-53
2022/10/06 05:09:10;;;;;;;18.30;2.20;;;;;;;11.68;86.30;102218.13;5096414;28;20131;-51
2022/10/06 05:11:41;;;;;;;16.85;2.58;;;;;;;11.68;85.17;102220.78;5091190;28;20051;-52
2022/10/06 05:14:10;;;;;;;24.90;3.10;;;;;;;11.63;84.93;102230.09;5066418;28;20032;-52
2022/10/06 05:16:41;;;;;;;21.80;2.65;;;;;;;11.62;85.15;102220.41;5095973;28;20052;-52
2022/10/06 05:19:10;;;;;;;20.25;2.60;;;;;;;11.49;86.80;102236.53;5090898;28;20497;-53
2022/10/06 05:21:38;;;;;;;15.05;2.97;;;;;;;11.44;85.61;102241.34;5077750;28;20138;-53
2022/10/06 05:24:06;;;;;;;24.13;2.78;;;;;;;11.41;85.59;102238.97;5075805;28;20032;-53
2022/10/06 05:26:35;;;;;;;22.52;3.08;;;;;;;11.45;85.39;102253.69;5085376;28;20078;-54
2022/10/06 05:29:04;;;;;;;18.42;2.65;;;;;;;11.56;85.00;102263.47;5102042;27;20039;-52
2022/10/06 05:31:37;;;;;;;17.05;3.05;;;;;;;11.48;84.89;102258.75;5095426;28;20048;-51
2022/10/06 05:34:04;;;;;;;24.73;2.47;;;;;;;11.42;85.95;102267.22;5087553;28;20086;-52
2022/10/06 05:36:32;;;;;;;25.42;2.50;;;;;;;11.32;85.48;102264.44;5075775;28;20131;-50
2022/10/06 05:39:01;;;;;;;27.27;3.50;;;;;;;11.34;85.68;102265.16;5075951;28;20067;-53
2022/10/06 05:41:36;;;;;;;25.48;3.05;;;;;;;11.32;84.98;102273.25;5074531;28;20040;-53
2022/10/06 05:44:06;;;;;;;34.75;3.47;;;;;;;11.26;86.08;102287.03;5091909;28;20526;-51
2022/10/06 05:46:34;;;;;;;18.20;2.70;;;;;;;11.22;85.54;102285.56;5082382;28;20036;-52
2022/10/06 05:49:06;;;;;;;21.38;2.92;;;;;;;11.20;86.36;102289.31;5090484;28;20044;-50
2022/10/06 05:51:33;;;;;;;;;;;;;;;11.19;85.67;102293.78;5066535;28;20181;-53
2022/10/06 05:54:05;;;;;;;20.38;2.95;;;;;;;11.15;86.15;102294.97;5084140;28;20437;-53
2022/10/06 05:56:34;;;;;;;26.60;3.35;;;;;;;11.12;85.92;102304.03;5094569;28;20063;-52
2022/10/06 05:59:02;;;;;;;24.63;2.92;;;;;;;11.20;85.17;102305.25;5078470;28;20044;-51
2022/10/06 06:01:39;;;;;;;28.00;3.38;;;;;;;11.19;84.77;102307.06;5075266;28;20045;-54
2022/10/06 06:04:13;;;;;;;19.48;2.75;;;;;;;11.18;86.32;102313.34;5085794;28;20093;-53
2022/10/06 06:06:47;;;;;;;25.23;3.43;;;;;;;11.20;84.95;102311.41;5095380;28;20056;-53
2022/10/06 06:09:20;;;;;;;21.40;2.72;;;;;;;11.22;85.21;102314.78;5093507;28;20408;-54
2022/10/06 06:11:52;;;;;;;23.42;3.05;;;;;;;11.20;85.00;102323.84;5074052;28;20385;-52
2022/10/06 06:17:16;;;;;;;25.02;3.47;;;;;;;11.13;85.25;102320.81;5088311;28;20126;-53
2022/10/06 06:19:43;;;;;;;37.95;3.50;;;;;;;11.31;84.35;102329.16;5088124;28;20074;-52
2022/10/06 06:22:10;;;;;;;25.15;2.88;;;;;;;11.43;83.63;102328.19;5090893;28;20115;-51
2022/10/06 06:24:39;;;;;;;24.77;3.00;;;;;;;11.48;82.93;102335.84;5088324;28;20036;-51
2022/10/06 06:27:07;;;;;;;20.98;3.25;;;;;;;11.31;83.78;102337.13;5109662;28;20370;-52
2022/10/06 06:29:34;;;;;;;24.80;2.88;;;;;;;11.34;84.63;102344.88;5089583;28;20036;-52
2022/10/06 06:32:00;;;;;;;27.25;3.50;;;;;;;11.36;85.94;102352.72;5106748;27;20060;-52
2022/10/06 06:34:29;;;;;;;25.77;3.05;;;;;;;11.51;83.45;102354.16;5084041;28;20059;-50
2022/10/06 06:36:57;;;;;;;22.88;3.17;;;;;;;11.49;83.88;102356.94;5095882;28;20044;-51
2022/10/06 06:39:26;;;;;;;26.80;3.30;;;;;;;11.48;83.31;102359.75;5094008;28;20514;-52
2022/10/06 06:41:53;;;;;;;24.52;3.05;;;;;;;11.46;84.58;102367.84;5100515;28;20092;-49
2022/10/06 06:44:40;;;;;;;34.15;5.95;;;;;;;11.51;82.38;102360.34;5088181;28;20047;-54
2022/10/06 06:47:17;;;;;;;34.85;6.10;;;;;;;11.47;83.49;102382.78;5095903;28;20044;-52
2022/10/06 06:49:46;;;;;;;31.80;4.78;;;;;;;11.47;84.69;102382.78;5094777;28;20042;-52
2022/10/06 06:52:13;;;;;;;18.05;2.60;;;;;;;11.64;81.83;102384.16;4996751;28;20051;-50
2022/10/06 06:54:40;;;;;;;27.63;3.13;;;;;;;11.43;84.02;102384.00;5100291;28;20036;-51
2022/10/06 06:57:10;;;;;;;32.28;3.05;;;;;;;11.45;82.49;102381.25;5097139;28;20421;-52
2022/10/06 06:59:37;;;;;;;20.17;3.42;;;;;;;11.46;82.49;102385.56;5092832;28;20044;-51
2022/10/06 07:02:08;;;;;;;26.85;3.67;;;;;;;11.53;82.46;102392.09;5105231;28;20044;-49
2022/10/06 07:04:37;;;;;;;30.45;3.90;;;;;;;11.55;81.26;102391.97;5080701;28;20029;-49
2022/10/06 07:07:07;;;;;;;27.02;3.17;;;;;;;11.60;82.04;102395.97;5106456;28;20047;-51
2022/10/06 07:09:35;;;;;;;31.63;3.55;;;;;;;11.59;80.63;102396.09;5083294;28;20127;-52
2022/10/06 07:12:06;;;;;;;29.00;3.25;;;;;;;11.62;81.37;102399.34;5103881;27;20044;-52
2022/10/06 07:14:33;;;;;;;35.97;5.05;;;;;;;11.72;81.67;102412.78;5085915;28;20048;-51
2022/10/06 07:25:22;;;;;;;25.42;3.08;;;;;;;11.95;80.60;102434.94;5096672;28;20048;-51
2022/10/06 07:27:54;;;;;;;17.33;2.83;;;;;;;11.97;80.39;102438.31;5106431;28;20038;-53
2022/10/06 07:30:27;;;;;;;20.63;3.10;;;;;;;11.88;79.77;102449.66;5091030;28;20447;-54
2022/10/06 07:32:59;;;;;;;30.40;3.70;;;;;;;12.01;79.18;102452.22;5100163;28;20040;-49
2022/10/06 07:35:27;;;;;;;29.48;4.50;;;;;;;12.12;78.71;102446.88;5087378;28;20059;-53
2022/10/06 07:37:56;;;;;;;21.45;2.90;;;;;;;12.07;77.83;102449.91;5053263;28;20167;-53
2022/10/06 07:40:23;;;;;;;24.55;2.72;;;;;;;12.12;78.48;102459.34;5097918;28;21614;-53
2022/10/06 07:42:50;;;;;;;24.92;3.88;;;;;;;12.09;79.17;102463.06;5083146;28;20039;-53
2022/10/06 07:45:40;;;;;;;24.50;3.08;;;;;;;12.27;77.93;102474.06;5100491;28;20427;-58
2022/10/06 07:48:16;;;;;;;23.77;3.30;;;;;;;12.26;78.26;102475.03;5076430;28;20049;-52
2022/10/06 07:50:48;;;;;;;29.92;3.38;;;;;;;12.39;77.68;102482.91;5073846;28;20539;-54
2022/10/06 07:53:18;;;;;;;24.80;4.07;;;;;;;12.44;76.88;102483.34;5065344;28;20043;-50
2022/10/06 07:55:50;;;;;;;28.20;3.38;;;;;;;12.47;76.86;102483.94;5092200;28;20055;-50
2022/10/06 07:58:22;;;;;;;30.20;3.25;;;;;;;12.55;76.35;102486.00;5097201;28;20036;-53
2022/10/06 08:00:51;;;;;;;24.83;3.78;;;;;;;12.65;77.36;102486.09;5099514;28;20047;-52
2022/10/06 08:03:19;;;;;;;22.05;3.40;;;;;;;12.74;77.11;102492.50;5083957;28;20051;-53
2022/10/06 08:05:48;;;;;;;29.00;2.85;;;;;;;12.89;76.75;102496.53;5100141;28;20092;-52
2022/10/06 08:08:15;;;;;;;33.35;3.97;;;;;;;12.98;76.02;102505.59;5088105;28;20059;-53
2022/10/06 08:10:50;;;;;;;25.20;3.70;;;;;;;13.01;75.28;102503.53;5094583;28;20043;-55
2022/10/06 08:13:17;;;;;;;28.73;3.05;;;;;;;13.15;74.70;102513.06;5095265;28;20032;-53
2022/10/06 08:15:44;;;;;;;21.63;3.08;;;;;;;13.23;74.57;102515.06;5092292;28;20100;-54
2022/10/06 08:18:10;;;;;;;27.48;3.38;;;;;;;13.27;73.61;102518.31;5091561;28;20130;-52
2022/10/06 08:20:47;;;;;;;22.48;2.78;;;;;;;13.23;73.99;102510.56;5086127;28;20051;-53
2022/10/06 08:23:13;;;;;;;27.13;3.22;;;;;;;13.36;76.34;102510.41;5095545;28;20554;-53
2022/10/06 08:25:42;;;;;;;28.95;3.45;;;;;;;13.35;73.49;102523.88;5073384;28;20059;-53
2022/10/06 08:28:10;;;;;;;26.98;3.08;;;;;;;13.49;73.29;102522.72;5102849;28;20485;-53
2022/10/06 08:30:37;;;;;;;29.75;3.50;;;;;;;13.56;73.80;102526.56;5097412;28;20387;-54
2022/10/06 08:33:05;;;;;;;24.42;4.03;;;;;;;13.55;72.08;102522.19;5094860;28;20048;-54
2022/10/06 08:35:34;;;;;;;37.38;3.35;;;;;;;13.64;73.67;102521.41;5077310;28;20050;-52
2022/10/06 08:38:01;;;;;;;26.60;5.00;;;;;;;13.51;73.75;102520.75;5081687;28;20047;-53
2022/10/06 08:40:28;;;;;;;29.58;3.60;;;;;;;13.57;73.88;102518.44;5093056;28;20502;-51
2022/10/06 08:42:57;;;;;;;34.45;3.70;;;;;;;13.75;73.31;102524.03;5094281;28;20405;-53
2022/10/06 08:45:34;;;;;;;29.00;3.47;;;;;;;13.77;72.49;102523.88;5093537;28;20040;-54
2022/10/06 08:48:12;;;;;;;26.58;3.55;;;;;;;13.84;71.58;102519.69;5096010;28;20036;-53
2022/10/06 08:50:59;;;;;;;25.55;3.47;;;;;;;13.78;72.77;102522.91;5089748;28;20048;-53
2022/10/06 08:53:45;;;;;;;22.70;3.88;;;;;;;13.82;71.51;102529.66;5098055;28;20529;-53
2022/10/06 08:56:18;;;;;;;29.20;3.28;;;;;;;13.91;71.51;102534.19;5099969;28;20047;-54
2022/10/06 08:58:55;;;;;;;27.80;3.30;;;;;;;14.01;72.83;102536.94;5082473;28;20290;-53
2022/10/06 09:01:25;;;;;;;25.20;3.30;;;;;;;14.11;71.52;102543.13;5102357;28;20049;-53
2022/10/06 09:04:00;;;;;;;20.63;3.38;;;;;;;14.09;72.46;102553.13;5101415;28;20486;-54
2022/10/06 09:06:43;;;;;;;30.58;3.65;;;;;;;14.32;70.63;102548.44;5103074;28;20119;-53
2022/10/06 09:09:24;;;;;;;23.98;2.90;;;;;;;14.66;69.55;102552.66;5090023;28;20075;-54
2022/10/06 09:12:05;;;;;;;20.27;2.95;;;;;;;15.09;66.69;102560.31;5084543;28;20405;-54
2022/10/06 09:14:40;;;;;;;27.63;3.30;;;;;;;15.50;64.47;102569.03;5097323;28;20058;-53
2022/10/06 09:17:14;;;;;;;22.73;4.07;;;;;;;16.22;62.52;102568.63;5100125;28;20066;-51
2022/10/06 09:19:49;;;;;;;31.70;3.42;;;;;;;16.87;58.87;102574.78;5106717;28;20040;-53
2022/10/06 09:22:19;;;;;;;21.95;3.58;;;;;;;17.32;58.33;102575.75;5095744;28;20572;-53
2022/10/06 09:24:49;;;;;;;23.92;2.90;;;;;;;17.95;56.56;102585.47;5096940;28;20424;-54
2022/10/06 09:27:22;;;;;;;20.80;2.72;;;;;;;18.17;53.71;102583.25;5083471;28;20051;-53
2022/10/06 09:29:51;;;;;;;27.10;3.40;;;;;;;19.35;52.22;102586.81;5088085;28;20048;-53
2022/10/06 09:32:20;;;;;;;21.67;3.65;;;;;;;19.06;51.11;102579.22;5090618;28;20407;-53
2022/10/06 09:34:54;;;;;;;21.75;3.30;;;;;;;18.97;50.99;102586.44;5095957;28;20040;-53
2022/10/06 09:37:22;;;;;;;22.63;3.53;;;;;;;19.74;50.15;102593.41;5111218;28;20488;-53
2022/10/06 09:39:51;;;;;;;21.02;2.95;;;;;;;20.16;49.49;102597.69;5095618;28;20040;-52
2022/10/06 09:42:21;;;;;;;26.88;3.63;;;;;;;21.58;45.58;102592.22;5103522;28;20093;-54
2022/10/06 09:44:56;;;;;;;30.17;3.00;;;;;;;21.52;44.67;102590.25;5081425;28;20040;-52
2022/10/06 09:50:19;;;;;;;24.75;3.08;;;;;;;20.41;46.19;102606.56;5080651;27;20133;-53
2022/10/06 09:53:04;;;;;;;24.52;3.88;;;;;;;22.00;44.30;102602.44;5043452;28;20040;-53
2022/10/06 09:55:42;;;;;;;19.10;2.95;;;;;;;23.19;40.52;102602.31;5086236;28;20405;-53
2022/10/06 09:58:19;;;;;;;25.92;3.35;;;;;;;23.38;39.49;102598.09;5075444;28;20037;-53
2022/10/06 10:00:52;;;;;;;25.65;3.33;;;;;;;23.41;39.27;102598.75;5071424;28;20033;-53
2022/10/06 10:03:20;;;;;;;25.33;3.10;;;;;;;22.87;40.30;102600.91;5085523;28;20036;-52
2022/10/06 10:05:50;;;;;;;18.95;2.80;;;;;;;22.46;39.53;102603.31;5078572;28;20044;-53
2022/10/06 10:08:21;;;;;;;23.60;2.90;;;;;;;22.76;38.89;102606.81;5095557;28;20514;-53
2022/10/06 10:12:23;;;;;;;18.70;3.08;;;;;;;22.64;38.44;102598.34;5093816;28;20044;-53
2022/10/06 10:13:57;;;;;;;18.95;3.00;;;;;;;22.19;39.14;102608.31;5087458;28;20093;-52
2022/10/06 10:16:26;;;;;;;24.80;2.97;;;;;;;23.45;37.41;102603.59;5093735;28;20093;-53
2022/10/06 10:18:53;;;;;;;22.05;3.00;;;;;;;25.14;34.91;102602.44;5094746;28;20490;-54
2022/10/06 10:21:28;;;;;;;18.30;2.83;;;;;;;23.60;35.97;102608.09;5078202;28;20111;-54
2022/10/06 10:23:57;;;;;;;21.60;3.35;;;;;;;23.03;36.65;102605.25;5085706;28;20440;-52
2022/10/06 10:26:53;;;;;;;22.15;3.30;;;;;;;23.12;35.79;102606.81;5090854;28;20049;-53
2022/10/06 10:29:35;;;;;;;19.70;2.50;;;;;;;24.14;34.66;102605.56;5104594;28;20054;-53
2022/10/06 10:32:12;;;;;;;18.40;2.83;;;;;;;24.78;33.07;102610.91;5078075;28;20059;-53
2022/10/06 10:34:57;;;;;;;16.65;3.10;;;;;;;24.38;33.42;102619.69;5101703;28;20078;-55
2022/10/06 10:37:43;;;;;;;21.35;2.53;;;;;;;23.87;33.47;102617.28;5072499;28;20047;-54
2022/10/06 10:40:33;;;;;;;17.27;2.65;;;;;;;24.74;33.74;102612.34;5099714;28;20048;-53
2022/10/06 10:43:40;;;;;;;15.90;2.80;;;;;;;24.17;33.47;102617.88;5099710;28;20141;-54
2022/10/06 10:46:15;;;;;;;19.50;2.90;;;;;;;24.97;31.67;102618.25;5085855;28;20075;-54
2022/10/06 10:48:48;;;;;;;17.65;2.83;;;;;;;25.68;30.50;102609.56;5090001;28;20091;-55
2022/10/06 10:51:23;;;;;;;15.23;2.83;;;;;;;25.91;29.72;102611.00;5039383;28;20838;-54
2022/10/06 10:54:03;;;;;;;12.10;2.35;;;;;;;24.70;30.39;102618.19;5062790;28;20043;-54
2022/10/06 10:56:32;;;;;;;15.65;2.47;;;;;;;24.95;30.32;102614.06;5072246;28;20048;-57
2022/10/06 10:59:09;;;;;;;18.33;2.83;;;;;;;25.80;29.66;102612.50;5076982;28;20041;-53
2022/10/06 11:02:00;;;;;;;19.25;3.10;;;;;;;26.50;28.63;102620.06;5076061;28;20068;-57
2022/10/06 11:04:27;;;;;;;14.50;2.60;;;;;;;27.29;27.41;102619.91;5068075;28;20101;-55
2022/10/06 11:07:12;;;;;;;19.48;2.72;;;;;;;26.11;29.23;102613.72;5066608;28;20044;-53
2022/10/06 11:09:52;;;;;;;14.65;2.40;;;;;;;25.55;29.59;102614.19;5072188;28;20067;-54
2022/10/06 11:12:59;;;;;;;14.68;2.80;;;;;;;24.65;30.91;102625.22;5045377;28;20040;-60
2022/10/06 11:18:44;;;;;;;15.55;2.38;;;;;;;24.37;31.22;102618.00;5094188;27;20421;-59
2022/10/06 11:21:33;;;;;;;21.73;2.88;;;;;;;22.17;34.50;102619.31;5105830;28;20107;-59
2022/10/06 11:24:18;;;;;;;17.85;2.30;;;;;;;22.32;33.30;102621.19;5106208;27;20066;-48
2022/10/06 11:27:17;;;;;;;14.20;1.98;;;;;;;21.96;33.86;102617.34;5098121;27;20040;-59
2022/10/06 11:30:01;;;;;;;14.85;2.50;;;;;;;22.27;33.60;102618.25;5100597;28;20051;-58
2022/10/06 11:32:55;;;;;;;15.30;2.40;;;;;;;22.30;34.55;102620.56;5081078;28;20096;-59
2022/10/06 11:35:26;;;;;;;16.88;2.30;;;;;;;21.56;35.47;102608.59;5110278;28;20545;-59
2022/10/06 11:38:01;;;;;;;12.40;2.20;;;;;;;21.80;35.13;102620.22;5094433;27;20036;-60
2022/10/06 11:40:38;;;;;;;13.70;2.40;;;;;;;22.39;34.65;102609.47;5113015;28;20070;-59
2022/10/06 11:43:21;;;;;;;22.73;2.75;;;;;;;22.51;35.19;102617.09;5086815;28;20112;-60
2022/10/06 11:46:16;;;;;;;13.57;2.50;;;;;;;21.47;34.91;102618.63;5114313;27;20035;-60
2022/10/06 11:48:43;;;;;;;20.02;3.10;;;;;;;21.60;36.47;102617.19;5089133;28;20056;-52
2022/10/06 11:51:28;;;;;;;17.40;3.42;;;;;;;21.57;35.15;102617.53;5064231;28;20907;-49
2022/10/06 11:53:55;;;;;;;18.42;2.65;;;;;;;20.36;36.58;102611.63;5085474;28;20032;-59
2022/10/06 11:56:34;;;;;;;11.60;2.15;;;;;;;20.36;37.71;102613.50;5097697;28;20040;-59